OEY24 WAGG-WAAA
Flight info
| Callsign | OEY24 |
|---|---|
| Flight time | 1h 8m |
| Altitude | 27000 |
| Route | GURNI |
| Aircraft | B733/M-SDE2E3FHIRW/S |
Departure
| Time | 2026-05-05 10:17 |
|---|---|
| Airport | Tjilik Riwut Airport (WAGG) |
Arrival
| Time | 2026-05-05 11:25 |
|---|---|
| Airport | Sultan Hasanuddin International Airport (WAAA) |
| Time | Latitude | Longitude | Altitude | Speed | Heading |
|---|---|---|---|---|---|
| 2026-05-05 09:53 | -2.22480 | 113.94454 | 89 ft | 0 kts | 70° |
| 2026-05-05 10:08 | -2.22483 | 113.94446 | 89 ft | 0 kts | 70° |
| 2026-05-05 10:08 | -2.22488 | 113.94436 | 89 ft | 2 kts | 49° |
| 2026-05-05 10:08 | -2.22500 | 113.94427 | 89 ft | 2 kts | 22° |
| 2026-05-05 10:08 | -2.22515 | 113.94424 | 89 ft | 2 kts | 354° |
| 2026-05-05 10:09 | -2.22523 | 113.94425 | 89 ft | 1 kts | 339° |
| 2026-05-05 10:09 | -2.22528 | 113.94428 | 89 ft | 0 kts | 338° |
| 2026-05-05 10:12 | -2.22521 | 113.94425 | 89 ft | 2 kts | 338° |
| 2026-05-05 10:12 | -2.22488 | 113.94413 | 89 ft | 7 kts | 340° |
| 2026-05-05 10:12 | -2.22456 | 113.94391 | 89 ft | 3 kts | 287° |
| 2026-05-05 10:12 | -2.22462 | 113.94360 | 89 ft | 5 kts | 248° |
| 2026-05-05 10:13 | -2.22482 | 113.94308 | 89 ft | 10 kts | 248° |
| 2026-05-05 10:13 | -2.22511 | 113.94269 | 89 ft | 5 kts | 192° |
| 2026-05-05 10:13 | -2.22572 | 113.94286 | 89 ft | 13 kts | 160° |
| 2026-05-05 10:13 | -2.22683 | 113.94327 | 89 ft | 20 kts | 159° |
| 2026-05-05 10:14 | -2.22841 | 113.94388 | 89 ft | 26 kts | 159° |
| 2026-05-05 10:14 | -2.23012 | 113.94453 | 89 ft | 26 kts | 159° |
| 2026-05-05 10:14 | -2.23189 | 113.94521 | 89 ft | 27 kts | 158° |
| 2026-05-05 10:14 | -2.23367 | 113.94588 | 89 ft | 27 kts | 158° |
| 2026-05-05 10:15 | -2.23551 | 113.94659 | 89 ft | 28 kts | 159° |
| 2026-05-05 10:15 | -2.23708 | 113.94721 | 89 ft | 14 kts | 149° |
| 2026-05-05 10:15 | -2.23777 | 113.94773 | 89 ft | 6 kts | 169° |
| 2026-05-05 10:15 | -2.23790 | 113.94760 | 89 ft | 1 kts | 286° |
| 2026-05-05 10:16 | -2.23778 | 113.94749 | 89 ft | 3 kts | 326° |
| 2026-05-05 10:16 | -2.23746 | 113.94734 | 89 ft | 6 kts | 339° |
| 2026-05-05 10:16 | -2.23672 | 113.94705 | 89 ft | 29 kts | 339° |
| 2026-05-05 10:16 | -2.23240 | 113.94540 | 89 ft | 102 kts | 339° |
| 2026-05-05 10:17 | -2.22373 | 113.94209 | 89 ft | 164 kts | 338° |
| 2026-05-05 10:17 | -2.21190 | 113.93748 | 336 ft | 195 kts | 338° |
| 2026-05-05 10:17 | -2.19865 | 113.93228 | 915 ft | 210 kts | 338° |
| 2026-05-05 10:17 | -2.18488 | 113.92698 | 1546 ft | 219 kts | 339° |
| 2026-05-05 10:18 | -2.17015 | 113.92138 | 2000 ft | 236 kts | 339° |
| 2026-05-05 10:18 | -2.15463 | 113.91554 | 2643 ft | 244 kts | 340° |
| 2026-05-05 10:18 | -2.13747 | 113.91398 | 3185 ft | 257 kts | 14° |
| 2026-05-05 10:18 | -2.12155 | 113.92253 | 3668 ft | 269 kts | 45° |
| 2026-05-05 10:19 | -2.11119 | 113.93831 | 4338 ft | 274 kts | 69° |
| 2026-05-05 10:19 | -2.10441 | 113.95607 | 5075 ft | 278 kts | 70° |
| 2026-05-05 10:19 | -2.09772 | 113.97444 | 5813 ft | 282 kts | 70° |
| 2026-05-05 10:19 | -2.09210 | 113.99324 | 6510 ft | 287 kts | 84° |
| 2026-05-05 10:20 | -2.09501 | 114.01283 | 7215 ft | 289 kts | 116° |
| 2026-05-05 10:20 | -2.10774 | 114.02781 | 7901 ft | 289 kts | 149° |
| 2026-05-05 10:20 | -2.12679 | 114.03394 | 8605 ft | 289 kts | 178° |
| 2026-05-05 10:20 | -2.14684 | 114.03449 | 9320 ft | 292 kts | 179° |
| 2026-05-05 10:21 | -2.16711 | 114.03544 | 10014 ft | 295 kts | 169° |
| 2026-05-05 10:21 | -2.18639 | 114.04371 | 10280 ft | 314 kts | 141° |
| 2026-05-05 10:21 | -2.20038 | 114.06123 | 10361 ft | 338 kts | 114° |
| 2026-05-05 10:21 | -2.20473 | 114.08460 | 10768 ft | 349 kts | 86° |
| 2026-05-05 10:22 | -2.20161 | 114.10923 | 11393 ft | 353 kts | 90° |
| 2026-05-05 10:22 | -2.20593 | 114.13321 | 12029 ft | 356 kts | 111° |
| 2026-05-05 10:22 | -2.21878 | 114.15410 | 12665 ft | 357 kts | 133° |
| 2026-05-05 10:22 | -2.23674 | 114.17160 | 13274 ft | 360 kts | 129° |
| 2026-05-05 10:23 | -2.25008 | 114.19289 | 13875 ft | 363 kts | 119° |
| 2026-05-05 10:23 | -2.26250 | 114.21506 | 14443 ft | 366 kts | 119° |
| 2026-05-05 10:23 | -2.27491 | 114.23709 | 15007 ft | 370 kts | 119° |
| 2026-05-05 10:23 | -2.28761 | 114.25956 | 15534 ft | 373 kts | 119° |
| 2026-05-05 10:24 | -2.30066 | 114.28255 | 16085 ft | 377 kts | 119° |
| 2026-05-05 10:24 | -2.31347 | 114.30514 | 16627 ft | 379 kts | 119° |
| 2026-05-05 10:24 | -2.32666 | 114.32840 | 17153 ft | 382 kts | 119° |
| 2026-05-05 10:24 | -2.33974 | 114.35144 | 17665 ft | 385 kts | 119° |
| 2026-05-05 10:25 | -2.35297 | 114.37475 | 18174 ft | 388 kts | 119° |
| 2026-05-05 10:25 | -2.36630 | 114.39822 | 18697 ft | 390 kts | 119° |
| 2026-05-05 10:25 | -2.37987 | 114.42213 | 19229 ft | 392 kts | 119° |
| 2026-05-05 10:25 | -2.39333 | 114.44585 | 19738 ft | 394 kts | 119° |
| 2026-05-05 10:26 | -2.40684 | 114.46965 | 20246 ft | 396 kts | 119° |
| 2026-05-05 10:26 | -2.42041 | 114.49356 | 20718 ft | 398 kts | 119° |
| 2026-05-05 10:26 | -2.43412 | 114.51767 | 21203 ft | 400 kts | 119° |
| 2026-05-05 10:26 | -2.44790 | 114.54192 | 21659 ft | 402 kts | 119° |
| 2026-05-05 10:27 | -2.46166 | 114.56615 | 22115 ft | 404 kts | 119° |
| 2026-05-05 10:27 | -2.47562 | 114.59074 | 22567 ft | 406 kts | 119° |
| 2026-05-05 10:27 | -2.48966 | 114.61549 | 22989 ft | 408 kts | 119° |
| 2026-05-05 10:27 | -2.50371 | 114.64025 | 23458 ft | 409 kts | 119° |
| 2026-05-05 10:28 | -2.51767 | 114.66489 | 23807 ft | 412 kts | 119° |
| 2026-05-05 10:28 | -2.53186 | 114.69003 | 24228 ft | 414 kts | 119° |
| 2026-05-05 10:28 | -2.54590 | 114.71485 | 24626 ft | 415 kts | 119° |
| 2026-05-05 10:28 | -2.56027 | 114.74020 | 25002 ft | 418 kts | 119° |
| 2026-05-05 10:29 | -2.57450 | 114.76530 | 25360 ft | 420 kts | 119° |
| 2026-05-05 10:29 | -2.58899 | 114.79086 | 25717 ft | 422 kts | 119° |
| 2026-05-05 10:29 | -2.60346 | 114.81637 | 26080 ft | 424 kts | 119° |
| 2026-05-05 10:29 | -2.61801 | 114.84203 | 26447 ft | 426 kts | 119° |
| 2026-05-05 10:30 | -2.63270 | 114.86794 | 26717 ft | 429 kts | 119° |
| 2026-05-05 10:30 | -2.64742 | 114.89391 | 26835 ft | 426 kts | 119° |
| 2026-05-05 10:30 | -2.66192 | 114.91949 | 26840 ft | 422 kts | 119° |
| 2026-05-05 10:30 | -2.67640 | 114.94503 | 26815 ft | 420 kts | 119° |
| 2026-05-05 10:31 | -2.69076 | 114.97036 | 26802 ft | 419 kts | 119° |
| 2026-05-05 10:31 | -2.70522 | 114.99587 | 26799 ft | 419 kts | 119° |
| 2026-05-05 10:31 | -2.71943 | 115.02094 | 26802 ft | 420 kts | 119° |
| 2026-05-05 10:31 | -2.73395 | 115.04655 | 26805 ft | 420 kts | 119° |
| 2026-05-05 10:32 | -2.74835 | 115.07198 | 26807 ft | 420 kts | 119° |
| 2026-05-05 10:32 | -2.76277 | 115.09742 | 26810 ft | 419 kts | 119° |
| 2026-05-05 10:32 | -2.77696 | 115.12247 | 26806 ft | 419 kts | 119° |
| 2026-05-05 10:32 | -2.79142 | 115.14799 | 26804 ft | 419 kts | 119° |
| 2026-05-05 10:33 | -2.80569 | 115.17316 | 26805 ft | 419 kts | 119° |
| 2026-05-05 10:33 | -2.82009 | 115.19858 | 26805 ft | 419 kts | 119° |
| 2026-05-05 10:33 | -2.83431 | 115.22368 | 26806 ft | 419 kts | 119° |
| 2026-05-05 10:33 | -2.84871 | 115.24912 | 26806 ft | 419 kts | 119° |
| 2026-05-05 10:34 | -2.86310 | 115.27451 | 26806 ft | 419 kts | 119° |
| 2026-05-05 10:34 | -2.87733 | 115.29964 | 26806 ft | 419 kts | 119° |
| 2026-05-05 10:34 | -2.89177 | 115.32513 | 26806 ft | 419 kts | 119° |
| 2026-05-05 10:34 | -2.90606 | 115.35037 | 26806 ft | 419 kts | 119° |
| 2026-05-05 10:35 | -2.92041 | 115.37572 | 26806 ft | 419 kts | 119° |
| 2026-05-05 10:35 | -2.93474 | 115.40101 | 26806 ft | 419 kts | 119° |
| 2026-05-05 10:35 | -2.94916 | 115.42648 | 26806 ft | 419 kts | 119° |
| 2026-05-05 10:35 | -2.96345 | 115.45172 | 26806 ft | 419 kts | 119° |
| 2026-05-05 10:36 | -2.97772 | 115.47693 | 26806 ft | 419 kts | 119° |
| 2026-05-05 10:36 | -2.99206 | 115.50227 | 26806 ft | 419 kts | 119° |
| 2026-05-05 10:36 | -3.00642 | 115.52763 | 26806 ft | 419 kts | 119° |
| 2026-05-05 10:36 | -3.02077 | 115.55298 | 26806 ft | 419 kts | 119° |
| 2026-05-05 10:37 | -3.03514 | 115.57837 | 26806 ft | 419 kts | 119° |
| 2026-05-05 10:37 | -3.04951 | 115.60377 | 26806 ft | 419 kts | 119° |
| 2026-05-05 10:37 | -3.06387 | 115.62914 | 26806 ft | 419 kts | 119° |
| 2026-05-05 10:37 | -3.07809 | 115.65427 | 26802 ft | 419 kts | 119° |
| 2026-05-05 10:38 | -3.09245 | 115.67974 | 26790 ft | 419 kts | 119° |
| 2026-05-05 10:38 | -3.10672 | 115.70500 | 26789 ft | 419 kts | 119° |
| 2026-05-05 10:38 | -3.12116 | 115.73036 | 26802 ft | 419 kts | 119° |
| 2026-05-05 10:38 | -3.13571 | 115.75597 | 26807 ft | 419 kts | 119° |
| 2026-05-05 10:39 | -3.14987 | 115.78095 | 26807 ft | 419 kts | 119° |
| 2026-05-05 10:39 | -3.16439 | 115.80660 | 26807 ft | 419 kts | 119° |
| 2026-05-05 10:39 | -3.17876 | 115.83201 | 26806 ft | 419 kts | 119° |
| 2026-05-05 10:39 | -3.19310 | 115.85736 | 26806 ft | 419 kts | 119° |
| 2026-05-05 10:40 | -3.20745 | 115.88273 | 26806 ft | 419 kts | 119° |
| 2026-05-05 10:40 | -3.22163 | 115.90781 | 26805 ft | 419 kts | 119° |
| 2026-05-05 10:40 | -3.23614 | 115.93347 | 26809 ft | 418 kts | 119° |
| 2026-05-05 10:40 | -3.25026 | 115.95845 | 26806 ft | 418 kts | 119° |
| 2026-05-05 10:41 | -3.26473 | 115.98404 | 26804 ft | 418 kts | 119° |
| 2026-05-05 10:41 | -3.27891 | 116.00912 | 26804 ft | 418 kts | 119° |
| 2026-05-05 10:41 | -3.29330 | 116.03458 | 26803 ft | 419 kts | 119° |
| 2026-05-05 10:41 | -3.30769 | 116.06003 | 26807 ft | 419 kts | 119° |
| 2026-05-05 10:42 | -3.33631 | 116.11067 | 26807 ft | 419 kts | 119° |
| 2026-05-05 10:42 | -3.35060 | 116.13596 | 26806 ft | 419 kts | 119° |
| 2026-05-05 10:42 | -3.36499 | 116.16143 | 26807 ft | 419 kts | 119° |
| 2026-05-05 10:43 | -3.37929 | 116.18673 | 26808 ft | 418 kts | 119° |
| 2026-05-05 10:43 | -3.39362 | 116.21210 | 26804 ft | 418 kts | 119° |
| 2026-05-05 10:43 | -3.40796 | 116.23747 | 26804 ft | 418 kts | 119° |
| 2026-05-05 10:43 | -3.42215 | 116.26260 | 26805 ft | 418 kts | 119° |
| 2026-05-05 10:44 | -3.43642 | 116.28786 | 26805 ft | 418 kts | 119° |
| 2026-05-05 10:44 | -3.45082 | 116.31337 | 26806 ft | 418 kts | 119° |
| 2026-05-05 10:44 | -3.46501 | 116.33849 | 26806 ft | 418 kts | 119° |
| 2026-05-05 10:44 | -3.47923 | 116.36367 | 26806 ft | 418 kts | 119° |
| 2026-05-05 10:45 | -3.49361 | 116.38912 | 26806 ft | 418 kts | 119° |
| 2026-05-05 10:45 | -3.50780 | 116.41427 | 26806 ft | 418 kts | 119° |
| 2026-05-05 10:45 | -3.52212 | 116.43962 | 26806 ft | 418 kts | 119° |
| 2026-05-05 10:45 | -3.53655 | 116.46519 | 26806 ft | 418 kts | 119° |
| 2026-05-05 10:46 | -3.55085 | 116.49052 | 26806 ft | 418 kts | 119° |
| 2026-05-05 10:46 | -3.56512 | 116.51580 | 26806 ft | 418 kts | 119° |
| 2026-05-05 10:46 | -3.57949 | 116.54127 | 26806 ft | 418 kts | 119° |
| 2026-05-05 10:46 | -3.59361 | 116.56628 | 26806 ft | 418 kts | 119° |
| 2026-05-05 10:47 | -3.60807 | 116.59190 | 26803 ft | 419 kts | 119° |
| 2026-05-05 10:47 | -3.62236 | 116.61723 | 26807 ft | 419 kts | 119° |
| 2026-05-05 10:47 | -3.63658 | 116.64242 | 26808 ft | 419 kts | 119° |
| 2026-05-05 10:47 | -3.65094 | 116.66793 | 26770 ft | 419 kts | 118° |
| 2026-05-05 10:48 | -3.66536 | 116.69360 | 26802 ft | 418 kts | 119° |
| 2026-05-05 10:48 | -3.67949 | 116.71869 | 26806 ft | 419 kts | 119° |
| 2026-05-05 10:48 | -3.69395 | 116.74436 | 26807 ft | 419 kts | 119° |
| 2026-05-05 10:48 | -3.70814 | 116.76952 | 26807 ft | 419 kts | 119° |
| 2026-05-05 10:49 | -3.72249 | 116.79498 | 26806 ft | 419 kts | 119° |
| 2026-05-05 10:49 | -3.73685 | 116.82044 | 26806 ft | 419 kts | 119° |
| 2026-05-05 10:49 | -3.75125 | 116.84598 | 26806 ft | 419 kts | 119° |
| 2026-05-05 10:49 | -3.76556 | 116.87135 | 26805 ft | 419 kts | 119° |
| 2026-05-05 10:50 | -3.77987 | 116.89673 | 26806 ft | 419 kts | 119° |
| 2026-05-05 10:50 | -3.79412 | 116.92202 | 26808 ft | 419 kts | 119° |
| 2026-05-05 10:50 | -3.80852 | 116.94756 | 26811 ft | 419 kts | 119° |
| 2026-05-05 10:50 | -3.82279 | 116.97289 | 26814 ft | 419 kts | 119° |
| 2026-05-05 10:51 | -3.83719 | 116.99844 | 26817 ft | 419 kts | 119° |
| 2026-05-05 10:51 | -3.85148 | 117.02380 | 26817 ft | 419 kts | 119° |
| 2026-05-05 10:51 | -3.86574 | 117.04910 | 26822 ft | 420 kts | 119° |
| 2026-05-05 10:51 | -3.88014 | 117.07466 | 26827 ft | 420 kts | 119° |
| 2026-05-05 10:52 | -3.89451 | 117.10016 | 26830 ft | 420 kts | 119° |
| 2026-05-05 10:52 | -3.90894 | 117.12577 | 26832 ft | 420 kts | 119° |
| 2026-05-05 10:52 | -3.92329 | 117.15125 | 26833 ft | 420 kts | 119° |
| 2026-05-05 10:52 | -3.93750 | 117.17648 | 26833 ft | 420 kts | 119° |
| 2026-05-05 10:53 | -3.95200 | 117.20222 | 26833 ft | 420 kts | 119° |
| 2026-05-05 10:53 | -3.96621 | 117.22746 | 26833 ft | 420 kts | 119° |
| 2026-05-05 10:53 | -3.98068 | 117.25282 | 26830 ft | 420 kts | 122° |
| 2026-05-05 10:53 | -3.99744 | 117.27708 | 26833 ft | 420 kts | 126° |
| 2026-05-05 10:54 | -4.01459 | 117.30051 | 26825 ft | 419 kts | 126° |
| 2026-05-05 10:54 | -4.03187 | 117.32419 | 26801 ft | 415 kts | 126° |
| 2026-05-05 10:54 | -4.04880 | 117.34753 | 26806 ft | 418 kts | 126° |
| 2026-05-05 10:54 | -4.06607 | 117.37137 | 26826 ft | 421 kts | 125° |
| 2026-05-05 10:55 | -4.08316 | 117.39500 | 26836 ft | 422 kts | 126° |
| 2026-05-05 10:55 | -4.10044 | 117.41888 | 26838 ft | 422 kts | 126° |
| 2026-05-05 10:55 | -4.11763 | 117.44254 | 26822 ft | 421 kts | 126° |
| 2026-05-05 10:55 | -4.13490 | 117.46629 | 26832 ft | 421 kts | 126° |
| 2026-05-05 10:56 | -4.15205 | 117.48996 | 26832 ft | 421 kts | 126° |
| 2026-05-05 10:56 | -4.16936 | 117.51389 | 26833 ft | 421 kts | 126° |
| 2026-05-05 10:56 | -4.18643 | 117.53749 | 26833 ft | 421 kts | 126° |
| 2026-05-05 10:56 | -4.20360 | 117.56125 | 26833 ft | 421 kts | 126° |
| 2026-05-05 10:57 | -4.22078 | 117.58502 | 26833 ft | 421 kts | 126° |
| 2026-05-05 10:57 | -4.23805 | 117.60892 | 26833 ft | 421 kts | 126° |
| 2026-05-05 10:57 | -4.25527 | 117.63275 | 26833 ft | 421 kts | 126° |
| 2026-05-05 10:57 | -4.27229 | 117.65633 | 26821 ft | 421 kts | 125° |
| 2026-05-05 10:58 | -4.28962 | 117.68043 | 26821 ft | 421 kts | 125° |
| 2026-05-05 10:58 | -4.30677 | 117.70425 | 26833 ft | 421 kts | 125° |
| 2026-05-05 10:58 | -4.32388 | 117.72797 | 26833 ft | 421 kts | 125° |
| 2026-05-05 10:58 | -4.34100 | 117.75170 | 26834 ft | 421 kts | 125° |
| 2026-05-05 10:59 | -4.35813 | 117.77542 | 26834 ft | 421 kts | 125° |
| 2026-05-05 10:59 | -4.37526 | 117.79916 | 26833 ft | 421 kts | 125° |
| 2026-05-05 10:59 | -4.39257 | 117.82313 | 26833 ft | 421 kts | 125° |
| 2026-05-05 10:59 | -4.40968 | 117.84682 | 26833 ft | 421 kts | 125° |
| 2026-05-05 11:00 | -4.42676 | 117.87048 | 26834 ft | 421 kts | 125° |
| 2026-05-05 11:00 | -4.44409 | 117.89450 | 26837 ft | 421 kts | 125° |
| 2026-05-05 11:00 | -4.46126 | 117.91829 | 26839 ft | 421 kts | 125° |
| 2026-05-05 11:00 | -4.47821 | 117.94178 | 26842 ft | 421 kts | 125° |
| 2026-05-05 11:01 | -4.49550 | 117.96574 | 26845 ft | 421 kts | 125° |
| 2026-05-05 11:01 | -4.51248 | 117.98927 | 26848 ft | 421 kts | 125° |
| 2026-05-05 11:01 | -4.52975 | 118.01322 | 26854 ft | 421 kts | 126° |
| 2026-05-05 11:01 | -4.54687 | 118.03693 | 26854 ft | 421 kts | 126° |
| 2026-05-05 11:02 | -4.56404 | 118.06075 | 26856 ft | 420 kts | 126° |
| 2026-05-05 11:02 | -4.58121 | 118.08456 | 26856 ft | 421 kts | 126° |
| 2026-05-05 11:02 | -4.60402 | 118.11620 | 26860 ft | 421 kts | 126° |
| 2026-05-05 11:02 | -4.62113 | 118.13993 | 26856 ft | 421 kts | 126° |
| 2026-05-05 11:03 | -4.63262 | 118.15586 | 26863 ft | 421 kts | 126° |
| 2026-05-05 11:03 | -4.64959 | 118.17938 | 26860 ft | 421 kts | 126° |
| 2026-05-05 11:03 | -4.66678 | 118.20322 | 26861 ft | 420 kts | 126° |
| 2026-05-05 11:03 | -4.68394 | 118.22701 | 26857 ft | 421 kts | 126° |
| 2026-05-05 11:04 | -4.70123 | 118.25099 | 26857 ft | 421 kts | 126° |
| 2026-05-05 11:04 | -4.71882 | 118.27424 | 26857 ft | 421 kts | 130° |
| 2026-05-05 11:04 | -4.73843 | 118.29604 | 26857 ft | 420 kts | 132° |
| 2026-05-05 11:04 | -4.75791 | 118.31721 | 26452 ft | 412 kts | 132° |
| 2026-05-05 11:05 | -4.77704 | 118.33810 | 26353 ft | 395 kts | 132° |
| 2026-05-05 11:05 | -4.79514 | 118.35795 | 26195 ft | 381 kts | 132° |
| 2026-05-05 11:05 | -4.81872 | 118.38389 | 25635 ft | 374 kts | 132° |
| 2026-05-05 11:05 | -4.83034 | 118.39668 | 25283 ft | 373 kts | 132° |
| 2026-05-05 11:06 | -4.84774 | 118.41584 | 24785 ft | 371 kts | 132° |
| 2026-05-05 11:06 | -4.87087 | 118.44133 | 24180 ft | 366 kts | 132° |
| 2026-05-05 11:06 | -4.88215 | 118.45376 | 24026 ft | 359 kts | 132° |
| 2026-05-05 11:06 | -4.89870 | 118.47197 | 23738 ft | 352 kts | 132° |
| 2026-05-05 11:07 | -4.91509 | 118.49005 | 23304 ft | 349 kts | 132° |
| 2026-05-05 11:07 | -4.93657 | 118.51374 | 22677 ft | 347 kts | 132° |
| 2026-05-05 11:07 | -4.95279 | 118.53161 | 22203 ft | 345 kts | 132° |
| 2026-05-05 11:07 | -4.96890 | 118.54937 | 21754 ft | 343 kts | 132° |
| 2026-05-05 11:08 | -4.97974 | 118.56132 | 21435 ft | 342 kts | 132° |
| 2026-05-05 11:08 | -4.99561 | 118.57879 | 20995 ft | 340 kts | 132° |
| 2026-05-05 11:08 | -5.01156 | 118.59636 | 20532 ft | 339 kts | 132° |
| 2026-05-05 11:08 | -5.02728 | 118.61370 | 20099 ft | 337 kts | 132° |
| 2026-05-05 11:09 | -5.04311 | 118.63116 | 19633 ft | 336 kts | 131° |
| 2026-05-05 11:09 | -5.05874 | 118.64841 | 19195 ft | 334 kts | 132° |
| 2026-05-05 11:09 | -5.07945 | 118.67135 | 18564 ft | 334 kts | 131° |
| 2026-05-05 11:09 | -5.08984 | 118.68285 | 18281 ft | 332 kts | 131° |
| 2026-05-05 11:10 | -5.11044 | 118.70558 | 17695 ft | 330 kts | 132° |
| 2026-05-05 11:10 | -5.12072 | 118.71685 | 17421 ft | 329 kts | 132° |
| 2026-05-05 11:10 | -5.13599 | 118.73364 | 17049 ft | 325 kts | 132° |
| 2026-05-05 11:10 | -5.15112 | 118.75030 | 16653 ft | 323 kts | 132° |
| 2026-05-05 11:11 | -5.17122 | 118.77243 | 16111 ft | 320 kts | 132° |
| 2026-05-05 11:11 | -5.18623 | 118.78897 | 15712 ft | 318 kts | 132° |
| 2026-05-05 11:11 | -5.19609 | 118.79984 | 15445 ft | 317 kts | 132° |
| 2026-05-05 11:11 | -5.21582 | 118.82161 | 14916 ft | 314 kts | 132° |
| 2026-05-05 11:12 | -5.23046 | 118.83778 | 14524 ft | 312 kts | 132° |
| 2026-05-05 11:12 | -5.23998 | 118.84827 | 14267 ft | 311 kts | 132° |
| 2026-05-05 11:12 | -5.25451 | 118.86432 | 13873 ft | 309 kts | 132° |
| 2026-05-05 11:12 | -5.26885 | 118.88015 | 13484 ft | 307 kts | 132° |
| 2026-05-05 11:13 | -5.28710 | 118.90181 | 12950 ft | 305 kts | 120° |
| 2026-05-05 11:13 | -5.29285 | 118.91483 | 12696 ft | 303 kts | 105° |
| 2026-05-05 11:13 | -5.29526 | 118.94251 | 12183 ft | 301 kts | 90° |
| 2026-05-05 11:13 | -5.29506 | 118.96362 | 11784 ft | 299 kts | 90° |
| 2026-05-05 11:14 | -5.29495 | 118.97756 | 11543 ft | 298 kts | 90° |
| 2026-05-05 11:14 | -5.29482 | 118.99796 | 11213 ft | 294 kts | 90° |
| 2026-05-05 11:14 | -5.29468 | 119.02525 | 10748 ft | 291 kts | 90° |
| 2026-05-05 11:14 | -5.29461 | 119.03874 | 10516 ft | 289 kts | 90° |
| 2026-05-05 11:15 | -5.29453 | 119.05886 | 10169 ft | 286 kts | 90° |
| 2026-05-05 11:15 | -5.29445 | 119.07873 | 9822 ft | 284 kts | 90° |
| 2026-05-05 11:15 | -5.29437 | 119.09860 | 9474 ft | 281 kts | 90° |
| 2026-05-05 11:15 | -5.29429 | 119.11809 | 9131 ft | 279 kts | 90° |
| 2026-05-05 11:16 | -5.29422 | 119.13733 | 8790 ft | 276 kts | 89° |
| 2026-05-05 11:16 | -5.29414 | 119.15653 | 8422 ft | 275 kts | 90° |
| 2026-05-05 11:16 | -5.29407 | 119.17561 | 8084 ft | 272 kts | 89° |
| 2026-05-05 11:16 | -5.29399 | 119.19450 | 7746 ft | 270 kts | 89° |
| 2026-05-05 11:17 | -5.29392 | 119.21339 | 7409 ft | 267 kts | 90° |
| 2026-05-05 11:17 | -5.29385 | 119.23152 | 7349 ft | 254 kts | 90° |
| 2026-05-05 11:17 | -5.29376 | 119.25470 | 7077 ft | 246 kts | 90° |
| 2026-05-05 11:17 | -5.29371 | 119.26623 | 6872 ft | 245 kts | 90° |
| 2026-05-05 11:18 | -5.29362 | 119.28899 | 6462 ft | 242 kts | 90° |
| 2026-05-05 11:18 | -5.29357 | 119.30033 | 6255 ft | 241 kts | 90° |
| 2026-05-05 11:18 | -5.29350 | 119.31692 | 6074 ft | 234 kts | 90° |
| 2026-05-05 11:18 | -5.29342 | 119.33805 | 5939 ft | 221 kts | 90° |
| 2026-05-05 11:19 | -5.29338 | 119.34847 | 5782 ft | 218 kts | 90° |
| 2026-05-05 11:19 | -5.29331 | 119.36367 | 5484 ft | 218 kts | 90° |
| 2026-05-05 11:19 | -5.29323 | 119.38425 | 5004 ft | 222 kts | 90° |
| 2026-05-05 11:19 | -5.29317 | 119.39677 | 4763 ft | 221 kts | 90° |
| 2026-05-05 11:20 | -5.29313 | 119.40731 | 4569 ft | 221 kts | 90° |
| 2026-05-05 11:20 | -5.29075 | 119.42242 | 4268 ft | 221 kts | 65° |
| 2026-05-05 11:20 | -5.27672 | 119.43720 | 4006 ft | 218 kts | 33° |
| 2026-05-05 11:20 | -5.26361 | 119.44485 | 3737 ft | 216 kts | 33° |
| 2026-05-05 11:21 | -5.25088 | 119.45227 | 3638 ft | 205 kts | 33° |
| 2026-05-05 11:21 | -5.23872 | 119.45936 | 3475 ft | 198 kts | 34° |
| 2026-05-05 11:21 | -5.22678 | 119.46632 | 3189 ft | 198 kts | 34° |
| 2026-05-05 11:21 | -5.21474 | 119.47334 | 2876 ft | 199 kts | 33° |
| 2026-05-05 11:22 | -5.20265 | 119.48037 | 2582 ft | 197 kts | 33° |
| 2026-05-05 11:22 | -5.19089 | 119.48718 | 2304 ft | 190 kts | 33° |
| 2026-05-05 11:22 | -5.17964 | 119.49368 | 2049 ft | 183 kts | 33° |
| 2026-05-05 11:22 | -5.16865 | 119.50002 | 1800 ft | 177 kts | 33° |
| 2026-05-05 11:23 | -5.15828 | 119.50599 | 1571 ft | 168 kts | 33° |
| 2026-05-05 11:23 | -5.15165 | 119.50984 | 1426 ft | 160 kts | 32° |
| 2026-05-05 11:23 | -5.13933 | 119.51704 | 1145 ft | 146 kts | 31° |
| 2026-05-05 11:23 | -5.13074 | 119.52193 | 969 ft | 141 kts | 31° |
| 2026-05-05 11:24 | -5.12208 | 119.52688 | 764 ft | 141 kts | 31° |
| 2026-05-05 11:24 | -5.11361 | 119.53172 | 572 ft | 139 kts | 31° |
| 2026-05-05 11:24 | -5.10517 | 119.53641 | 395 ft | 140 kts | 31° |
| 2026-05-05 11:24 | -5.09677 | 119.54133 | 183 ft | 140 kts | 33° |
| 2026-05-05 11:25 | -5.08835 | 119.54620 | 55 ft | 137 kts | 31° |
| 2026-05-05 11:25 | -5.08057 | 119.55080 | 50 ft | 110 kts | 32° |
| 2026-05-05 11:25 | -5.07532 | 119.55383 | 50 ft | 80 kts | 31° |
| 2026-05-05 11:25 | -5.07205 | 119.55572 | 50 ft | 45 kts | 29° |
| 2026-05-05 11:26 | -5.06945 | 119.55723 | 50 ft | 39 kts | 30° |
| 2026-05-05 11:26 | -5.06784 | 119.55812 | 50 ft | 16 kts | 24° |
| 2026-05-05 11:26 | -5.06709 | 119.55781 | 50 ft | 12 kts | 314° |
| 2026-05-05 11:26 | -5.06661 | 119.55712 | 50 ft | 11 kts | 274° |
| 2026-05-05 11:27 | -5.06706 | 119.55655 | 50 ft | 11 kts | 209° |
| 2026-05-05 11:27 | -5.06783 | 119.55612 | 50 ft | 13 kts | 209° |
| 2026-05-05 11:27 | -5.06872 | 119.55561 | 50 ft | 15 kts | 211° |
| 2026-05-05 11:27 | -5.06973 | 119.55502 | 50 ft | 17 kts | 209° |
| 2026-05-05 11:28 | -5.07087 | 119.55438 | 50 ft | 19 kts | 210° |
| 2026-05-05 11:28 | -5.07210 | 119.55366 | 50 ft | 21 kts | 211° |
| 2026-05-05 11:28 | -5.07282 | 119.55323 | 50 ft | 21 kts | 210° |
| 2026-05-05 11:28 | -5.07411 | 119.55248 | 50 ft | 21 kts | 210° |
| 2026-05-05 11:29 | -5.07539 | 119.55174 | 50 ft | 21 kts | 210° |
| 2026-05-05 11:29 | -5.07612 | 119.55115 | 50 ft | 11 kts | 248° |
| 2026-05-05 11:29 | -5.07589 | 119.55035 | 50 ft | 11 kts | 299° |
| 2026-05-05 11:29 | -5.07585 | 119.54963 | 50 ft | 4 kts | 257° |
| 2026-05-05 11:30 | -5.07589 | 119.54959 | 50 ft | 1 kts | 212° |
| 2026-05-05 11:30 | -5.07608 | 119.54951 | 50 ft | 5 kts | 204° |
| 2026-05-05 11:30 | -5.07656 | 119.54924 | 50 ft | 9 kts | 210° |
| 2026-05-05 11:30 | -5.07684 | 119.54915 | 50 ft | 1 kts | 150° |
| 2026-05-05 11:31 | -5.07689 | 119.54923 | 50 ft | 1 kts | 121° |
| 2026-05-05 11:31 | -5.07701 | 119.54942 | 50 ft | 4 kts | 120° |
| 2026-05-05 11:31 | -5.07717 | 119.54971 | 50 ft | 4 kts | 120° |
| 2026-05-05 11:31 | -5.07721 | 119.54977 | 50 ft | 0 kts | 120° |